Orlando, Florida
Traffic Map
Current Weather Conditions
Orlando, Florida
Scattered Clouds
Scattered Clouds
33°
Feels Like: 35°
Wind Chill: 33° Ceiling: Unl
Heat Index: 35° Visibility: 10mi
Dew Point: 21° Wind: 6mph
Humidity: 48% Direction: 90° (E)
Pressure: 30.07in Gusts: 0mph
Raw Report DataKORL 021753Z 09005KT 10SM SCT050 SCT075 33/21 A3007 RMK AO2 SLP185 T03280206 10333 20272 58016
Traffic Incident Summary
Active as of:
Severity:
Category:
InformationThere was an issue retrieving the traffic information for this location. Please try a different location or try again shortly.
Advertisements
Track Severe Weather on mobile